sensor_id;sensor_type;location;lat;lon;timestamp;pressure;altitude;pressure_sealevel;temperature;humidity
7200;BME280;3641;49.082;8.200;2023-02-23T00:00:37;100017.25;;;9.55;96.43
7200;BME280;3641;49.082;8.200;2023-02-23T00:03:04;100020.38;;;9.67;88.77
7200;BME280;3641;49.082;8.200;2023-02-23T00:05:34;100013.75;;;9.32;98.30
7200;BME280;3641;49.082;8.200;2023-02-23T00:08:02;100019.97;;;9.25;99.69
7200;BME280;3641;49.082;8.200;2023-02-23T00:10:29;100013.88;;;9.38;97.40
7200;BME280;3641;49.082;8.200;2023-02-23T00:12:55;100014.63;;;9.32;99.10
7200;BME280;3641;49.082;8.200;2023-02-23T00:15:24;100001.19;;;9.31;97.91
7200;BME280;3641;49.082;8.200;2023-02-23T00:17:52;100009.53;;;9.29;99.47
7200;BME280;3641;49.082;8.200;2023-02-23T00:20:20;100006.84;;;9.59;90.71
7200;BME280;3641;49.082;8.200;2023-02-23T00:22:51;100011.72;;;9.63;94.29
7200;BME280;3641;49.082;8.200;2023-02-23T00:25:18;100004.78;;;9.61;92.23
7200;BME280;3641;49.082;8.200;2023-02-23T00:27:45;100003.63;;;9.40;98.09
7200;BME280;3641;49.082;8.200;2023-02-23T00:30:13;100001.47;;;9.36;98.26
7200;BME280;3641;49.082;8.200;2023-02-23T00:32:41;100001.19;;;9.45;96.91
7200;BME280;3641;49.082;8.200;2023-02-23T00:35:08;100009.09;;;9.55;91.46
7200;BME280;3641;49.082;8.200;2023-02-23T00:37:41;100010.03;;;9.77;88.53
7200;BME280;3641;49.082;8.200;2023-02-23T00:40:09;100001.94;;;9.84;90.33
7200;BME280;3641;49.082;8.200;2023-02-23T00:42:39;100002.03;;;9.91;85.81
7200;BME280;3641;49.082;8.200;2023-02-23T00:45:06;99999.69;;;9.58;96.28
7200;BME280;3641;49.082;8.200;2023-02-23T00:47:36;99999.13;;;9.48;97.42
7200;BME280;3641;49.082;8.200;2023-02-23T00:50:05;99997.81;;;9.58;93.13
7200;BME280;3641;49.082;8.200;2023-02-23T00:52:31;99995.75;;;9.45;97.88
7200;BME280;3641;49.082;8.200;2023-02-23T00:54:58;99991.72;;;9.41;98.46
7200;BME280;3641;49.082;8.200;2023-02-23T00:57:24;99993.56;;;9.41;98.57
7200;BME280;3641;49.082;8.200;2023-02-23T00:59:51;99989.91;;;9.49;97.31
7200;BME280;3641;49.082;8.200;2023-02-23T01:02:17;99991.25;;;9.53;97.44
7200;BME280;3641;49.082;8.200;2023-02-23T01:04:44;99992.56;;;9.42;98.46
7200;BME280;3641;49.082;8.200;2023-02-23T01:07:12;99989.25;;;9.47;94.54
7200;BME280;3641;49.082;8.200;2023-02-23T01:09:39;99987.75;;;9.44;98.66
7200;BME280;3641;49.082;8.200;2023-02-23T01:12:06;99989.44;;;9.45;98.51
7200;BME280;3641;49.082;8.200;2023-02-23T01:14:33;99989.91;;;9.49;97.76
7200;BME280;3641;49.082;8.200;2023-02-23T01:16:59;99987.56;;;9.60;92.35
7200;BME280;3641;49.082;8.200;2023-02-23T01:19:26;99993.59;;;9.71;91.95
7200;BME280;3641;49.082;8.200;2023-02-23T01:21:52;99993.31;;;9.66;95.63
7200;BME280;3641;49.082;8.200;2023-02-23T01:24:20;99999.03;;;9.71;92.47
7200;BME280;3641;49.082;8.200;2023-02-23T01:26:47;100002.78;;;9.40;99.08
7200;BME280;3641;49.082;8.200;2023-02-23T01:29:15;99995.09;;;9.43;99.72
7200;BME280;3641;49.082;8.200;2023-02-23T01:31:44;99987.38;;;9.47;97.79
7200;BME280;3641;49.082;8.200;2023-02-23T01:34:12;99989.06;;;9.63;93.51
7200;BME280;3641;49.082;8.200;2023-02-23T01:36:41;99989.72;;;9.50;98.43
7200;BME280;3641;49.082;8.200;2023-02-23T01:39:10;99989.81;;;9.57;96.23
7200;BME280;3641;49.082;8.200;2023-02-23T01:41:39;99989.81;;;9.57;98.04
7200;BME280;3641;49.082;8.200;2023-02-23T01:47:13;99988.53;;;9.53;97.69
7200;BME280;3641;49.082;8.200;2023-02-23T01:49:39;99988.25;;;9.62;97.35
7200;BME280;3641;49.082;8.200;2023-02-23T01:52:09;99990.69;;;9.57;97.12
7200;BME280;3641;49.082;8.200;2023-02-23T01:54:38;99981.56;;;9.50;97.96
7200;BME280;3641;49.082;8.200;2023-02-23T01:57:11;99980.50;;;9.36;100.00
7200;BME280;3641;49.082;8.200;2023-02-23T01:59:42;99973.84;;;9.39;100.00
7200;BME280;3641;49.082;8.200;2023-02-23T02:02:10;99976.75;;;9.37;100.00
7200;BME280;3641;49.082;8.200;2023-02-23T02:04:39;99977.78;;;9.36;100.00
7200;BME280;3641;49.082;8.200;2023-02-23T02:07:09;99982.94;;;9.31;100.00
7200;BME280;3641;49.082;8.200;2023-02-23T02:09:35;99982.84;;;9.39;100.00
7200;BME280;3641;49.082;8.200;2023-02-23T02:12:03;99976.13;;;9.35;100.00
7200;BME280;3641;49.082;8.200;2023-02-23T02:14:34;99975.44;;;9.33;100.00
7200;BME280;3641;49.082;8.200;2023-02-23T02:17:19;99973.84;;;9.39;99.91
7200;BME280;3641;49.082;8.200;2023-02-23T02:20:08;99984.84;;;9.60;93.45
7200;BME280;3641;49.082;8.200;2023-02-23T02:26:01;99981.56;;;9.35;100.00
7200;BME280;3641;49.082;8.200;2023-02-23T02:29:21;99978.19;;;9.48;99.37
7200;BME280;3641;49.082;8.200;2023-02-23T02:32:33;99977.91;;;9.58;97.08
7200;BME280;3641;49.082;8.200;2023-02-23T02:35:18;99973.75;;;9.47;99.04
7200;BME280;3641;49.082;8.200;2023-02-23T02:37:58;99971.78;;;9.41;100.00
7200;BME280;3641;49.082;8.200;2023-02-23T02:40:32;99967.84;;;9.43;100.00
7200;BME280;3641;49.082;8.200;2023-02-23T02:43:06;99968.28;;;9.17;100.00
7200;BME280;3641;49.082;8.200;2023-02-23T02:45:44;99965.28;;;9.12;100.00
7200;BME280;3641;49.082;8.200;2023-02-23T02:48:22;99955.44;;;9.11;100.00
7200;BME280;3641;49.082;8.200;2023-02-23T02:50:54;99960.59;;;9.36;100.00
7200;BME280;3641;49.082;8.200;2023-02-23T02:53:28;99959.72;;;9.20;100.00
7200;BME280;3641;49.082;8.200;2023-02-23T02:55:57;99961.63;;;9.20;100.00
7200;BME280;3641;49.082;8.200;2023-02-23T02:58:25;99962.78;;;9.40;98.08
7200;BME280;3641;49.082;8.200;2023-02-23T03:00:53;99964.53;;;9.33;100.00
7200;BME280;3641;49.082;8.200;2023-02-23T03:03:38;99955.03;;;9.14;100.00
7200;BME280;3641;49.082;8.200;2023-02-23T03:06:26;99951.28;;;9.30;100.00
7200;BME280;3641;49.082;8.200;2023-02-23T03:09:24;99950.34;;;9.23;100.00
7200;BME280;3641;49.082;8.200;2023-02-23T03:12:18;99950.63;;;9.13;100.00
7200;BME280;3641;49.082;8.200;2023-02-23T03:15:18;99951.47;;;9.14;100.00
7200;BME280;3641;49.082;8.200;2023-02-23T03:18:15;99956.44;;;9.25;100.00
7200;BME280;3641;49.082;8.200;2023-02-23T03:21:07;99953.63;;;9.03;100.00
7200;BME280;3641;49.082;8.200;2023-02-23T03:24:01;99955.91;;;9.15;100.00
7200;BME280;3641;49.082;8.200;2023-02-23T03:26:53;99946.28;;;9.04;100.00
7200;BME280;3641;49.082;8.200;2023-02-23T03:29:43;99952.75;;;9.03;100.00
7200;BME280;3641;49.082;8.200;2023-02-23T03:32:33;99955.91;;;9.15;100.00
7200;BME280;3641;49.082;8.200;2023-02-23T03:35:23;99951.91;;;9.02;100.00
7200;BME280;3641;49.082;8.200;2023-02-23T03:38:11;99955.25;;;9.13;100.00
7200;BME280;3641;49.082;8.200;2023-02-23T03:40:57;99957.09;;;9.12;100.00
7200;BME280;3641;49.082;8.200;2023-02-23T03:43:47;99970.03;;;8.95;100.00
7200;BME280;3641;49.082;8.200;2023-02-23T03:46:34;99963.84;;;9.01;100.00
7200;BME280;3641;49.082;8.200;2023-02-23T03:49:20;99972.50;;;9.05;100.00
7200;BME280;3641;49.082;8.200;2023-02-23T03:52:13;99962.72;;;9.11;100.00
7200;BME280;3641;49.082;8.200;2023-02-23T03:55:02;99969.84;;;8.97;100.00
7200;BME280;3641;49.082;8.200;2023-02-23T03:57:50;99965.63;;;9.09;100.00
7200;BME280;3641;49.082;8.200;2023-02-23T04:00:42;99969.72;;;8.90;100.00
7200;BME280;3641;49.082;8.200;2023-02-23T04:03:28;99969.34;;;8.93;100.00
7200;BME280;3641;49.082;8.200;2023-02-23T04:06:16;99973.31;;;8.90;100.00
7200;BME280;3641;49.082;8.200;2023-02-23T04:09:03;99976.72;;;9.07;100.00
7200;BME280;3641;49.082;8.200;2023-02-23T04:11:50;99973.16;;;9.07;100.00
7200;BME280;3641;49.082;8.200;2023-02-23T04:14:40;99979.81;;;9.04;100.00
7200;BME280;3641;49.082;8.200;2023-02-23T04:17:09;99979.75;;;9.27;96.45
7200;BME280;3641;49.082;8.200;2023-02-23T04:19:35;99977.22;;;9.41;94.50
7200;BME280;3641;49.082;8.200;2023-02-23T04:22:02;99976.47;;;9.32;100.00
7200;BME280;3641;49.082;8.200;2023-02-23T04:24:28;99978.41;;;9.08;100.00
7200;BME280;3641;49.082;8.200;2023-02-23T04:26:55;99971.19;;;9.16;100.00
7200;BME280;3641;49.082;8.200;2023-02-23T04:29:21;99979.66;;;9.21;99.84
7200;BME280;3641;49.082;8.200;2023-02-23T04:31:48;99978.97;;;9.04;100.00
7200;BME280;3641;49.082;8.200;2023-02-23T04:34:16;99985.56;;;9.09;100.00
7200;BME280;3641;49.082;8.200;2023-02-23T04:36:42;99981.69;;;9.04;100.00
7200;BME280;3641;49.082;8.200;2023-02-23T04:39:08;99978.78;;;9.20;100.00
7200;BME280;3641;49.082;8.200;2023-02-23T04:41:35;99980.13;;;9.09;100.00
7200;BME280;3641;49.082;8.200;2023-02-23T04:44:01;99978.31;;;9.17;100.00
7200;BME280;3641;49.082;8.200;2023-02-23T04:46:29;99982.75;;;9.33;95.88
7200;BME280;3641;49.082;8.200;2023-02-23T04:48:55;99983.03;;;9.38;98.89
7200;BME280;3641;49.082;8.200;2023-02-23T04:51:23;99970.06;;;9.25;100.00
7200;BME280;3641;49.082;8.200;2023-02-23T04:53:54;99986.69;;;9.30;98.60
7200;BME280;3641;49.082;8.200;2023-02-23T04:56:21;99987.09;;;9.27;100.00
7200;BME280;3641;49.082;8.200;2023-02-23T04:58:47;99984.16;;;9.14;100.00
7200;BME280;3641;49.082;8.200;2023-02-23T05:01:14;99982.88;;;9.01;100.00
7200;BME280;3641;49.082;8.200;2023-02-23T05:03:40;99987.31;;;9.02;100.00
7200;BME280;3641;49.082;8.200;2023-02-23T05:06:07;99981.22;;;9.00;100.00
7200;BME280;3641;49.082;8.200;2023-02-23T05:08:34;99979.88;;;8.96;100.00
7200;BME280;3641;49.082;8.200;2023-02-23T05:11:01;99981.13;;;8.94;100.00
7200;BME280;3641;49.082;8.200;2023-02-23T05:13:27;99987.53;;;9.16;97.23
7200;BME280;3641;49.082;8.200;2023-02-23T05:15:55;99983.41;;;9.35;94.19
7200;BME280;3641;49.082;8.200;2023-02-23T05:18:22;99985.75;;;9.08;100.00
7200;BME280;3641;49.082;8.200;2023-02-23T05:20:51;99980.53;;;8.98;100.00
7200;BME280;3641;49.082;8.200;2023-02-23T05:23:17;99986.41;;;9.10;100.00
7200;BME280;3641;49.082;8.200;2023-02-23T05:25:45;99978.31;;;9.17;100.00
7200;BME280;3641;49.082;8.200;2023-02-23T05:28:12;99987.50;;;9.01;100.00
7200;BME280;3641;49.082;8.200;2023-02-23T05:30:38;99988.69;;;8.98;100.00
7200;BME280;3641;49.082;8.200;2023-02-23T05:33:05;99983.38;;;9.05;100.00
7200;BME280;3641;49.082;8.200;2023-02-23T05:35:31;99977.44;;;9.01;100.00
7200;BME280;3641;49.082;8.200;2023-02-23T05:37:58;99975.31;;;8.97;100.00
7200;BME280;3641;49.082;8.200;2023-02-23T05:40:24;99985.19;;;9.13;97.12
7200;BME280;3641;49.082;8.200;2023-02-23T05:42:57;99982.41;;;8.98;100.00
7200;BME280;3641;49.082;8.200;2023-02-23T05:45:24;99978.69;;;8.99;100.00
7200;BME280;3641;49.082;8.200;2023-02-23T05:47:50;99983.03;;;9.08;100.00
7200;BME280;3641;49.082;8.200;2023-02-23T05:50:16;99982.88;;;9.01;100.00
7200;BME280;3641;49.082;8.200;2023-02-23T05:52:43;99985.75;;;8.85;100.00
7200;BME280;3641;49.082;8.200;2023-02-23T05:55:10;99988.50;;;8.85;100.00
7200;BME280;3641;49.082;8.200;2023-02-23T05:57:37;99990.88;;;8.65;100.00
7200;BME280;3641;49.082;8.200;2023-02-23T06:00:10;99994.19;;;8.75;100.00
7200;BME280;3641;49.082;8.200;2023-02-23T06:02:38;99990.84;;;8.88;100.00
7200;BME280;3641;49.082;8.200;2023-02-23T06:05:06;99984.28;;;8.82;100.00
7200;BME280;3641;49.082;8.200;2023-02-23T06:07:33;99988.19;;;8.80;100.00
7200;BME280;3641;49.082;8.200;2023-02-23T06:09:59;99989.31;;;8.85;100.00
7200;BME280;3641;49.082;8.200;2023-02-23T06:12:26;99997.63;;;8.92;100.00
7200;BME280;3641;49.082;8.200;2023-02-23T06:14:52;100002.09;;;9.08;98.35
7200;BME280;3641;49.082;8.200;2023-02-23T06:17:20;99999.31;;;8.93;100.00
7200;BME280;3641;49.082;8.200;2023-02-23T06:19:46;100001.47;;;8.98;100.00
7200;BME280;3641;49.082;8.200;2023-02-23T06:22:13;100007.47;;;8.93;100.00
7200;BME280;3641;49.082;8.200;2023-02-23T06:24:41;100009.91;;;8.88;100.00
7200;BME280;3641;49.082;8.200;2023-02-23T06:27:08;100012.50;;;8.81;100.00
7200;BME280;3641;49.082;8.200;2023-02-23T06:29:35;100015.88;;;9.06;96.87
7200;BME280;3641;49.082;8.200;2023-02-23T06:32:01;100021.75;;;8.95;100.00
7200;BME280;3641;49.082;8.200;2023-02-23T06:34:29;100017.81;;;8.98;100.00
7200;BME280;3641;49.082;8.200;2023-02-23T06:36:56;100020.13;;;8.86;100.00
7200;BME280;3641;49.082;8.200;2023-02-23T06:39:22;100022.59;;;8.96;100.00
7200;BME280;3641;49.082;8.200;2023-02-23T06:41:49;100022.81;;;9.09;100.00
7200;BME280;3641;49.082;8.200;2023-02-23T06:44:15;100028.53;;;9.14;98.54
7200;BME280;3641;49.082;8.200;2023-02-23T06:46:42;100020.47;;;9.06;100.00
7200;BME280;3641;49.082;8.200;2023-02-23T06:49:09;100029.59;;;9.13;97.39
7200;BME280;3641;49.082;8.200;2023-02-23T06:51:38;100030.63;;;9.12;96.96
7200;BME280;3641;49.082;8.200;2023-02-23T06:54:04;100037.69;;;9.21;97.39
7200;BME280;3641;49.082;8.200;2023-02-23T06:56:31;100035.50;;;9.17;98.13
7200;BME280;3641;49.082;8.200;2023-02-23T06:58:57;100038.47;;;8.92;100.00
7200;BME280;3641;49.082;8.200;2023-02-23T07:01:24;100044.06;;;9.14;96.39
7200;BME280;3641;49.082;8.200;2023-02-23T07:03:50;100041.72;;;8.87;100.00
7200;BME280;3641;49.082;8.200;2023-02-23T07:06:17;100047.28;;;8.94;100.00
7200;BME280;3641;49.082;8.200;2023-02-23T07:08:44;100043.28;;;8.82;100.00
7200;BME280;3641;49.082;8.200;2023-02-23T07:11:13;100048.22;;;9.01;99.41
7200;BME280;3641;49.082;8.200;2023-02-23T07:13:40;100052.19;;;8.99;98.74
7200;BME280;3641;49.082;8.200;2023-02-23T07:16:08;100054.63;;;8.94;100.00
7200;BME280;3641;49.082;8.200;2023-02-23T07:18:35;100057.38;;;8.85;100.00
7200;BME280;3641;49.082;8.200;2023-02-23T07:21:01;100063.06;;;8.76;100.00
7200;BME280;3641;49.082;8.200;2023-02-23T07:23:28;100062.28;;;8.90;100.00
7200;BME280;3641;49.082;8.200;2023-02-23T07:25:56;100068.88;;;8.96;100.00
7200;BME280;3641;49.082;8.200;2023-02-23T07:28:23;100066.94;;;8.81;100.00
7200;BME280;3641;49.082;8.200;2023-02-23T07:30:54;100075.94;;;8.82;100.00
7200;BME280;3641;49.082;8.200;2023-02-23T07:33:20;100078.78;;;8.88;100.00
7200;BME280;3641;49.082;8.200;2023-02-23T07:35:48;100069.06;;;8.94;100.00
7200;BME280;3641;49.082;8.200;2023-02-23T07:38:14;100074.63;;;9.01;100.00
7200;BME280;3641;49.082;8.200;2023-02-23T07:40:40;100075.88;;;8.90;100.00
7200;BME280;3641;49.082;8.200;2023-02-23T07:43:08;100077.47;;;8.84;100.00
7200;BME280;3641;49.082;8.200;2023-02-23T07:45:35;100074.63;;;9.01;99.82
7200;BME280;3641;49.082;8.200;2023-02-23T07:48:01;100067.00;;;9.19;96.18
7200;BME280;3641;49.082;8.200;2023-02-23T07:50:28;100069.63;;;9.27;96.76
7200;BME280;3641;49.082;8.200;2023-02-23T07:52:55;100067.56;;;9.30;95.34
7200;BME280;3641;49.082;8.200;2023-02-23T07:55:21;100067.13;;;9.41;93.47
7200;BME280;3641;49.082;8.200;2023-02-23T07:57:47;100064.03;;;9.44;93.17
7200;BME280;3641;49.082;8.200;2023-02-23T08:00:16;100070.81;;;9.48;92.62
7200;BME280;3641;49.082;8.200;2023-02-23T08:02:43;100066.94;;;9.42;96.79
7200;BME280;3641;49.082;8.200;2023-02-23T08:05:10;100068.09;;;9.48;93.54
7200;BME280;3641;49.082;8.200;2023-02-23T08:07:36;100074.28;;;9.42;96.53
7200;BME280;3641;49.082;8.200;2023-02-23T08:10:03;100076.56;;;9.53;92.61
7200;BME280;3641;49.082;8.200;2023-02-23T08:12:30;100070.94;;;9.32;99.36
7200;BME280;3641;49.082;8.200;2023-02-23T08:14:57;100067.47;;;9.23;100.00
7200;BME280;3641;49.082;8.200;2023-02-23T08:17:25;100069.00;;;9.25;100.00
7200;BME280;3641;49.082;8.200;2023-02-23T08:19:51;100066.38;;;9.32;100.00
7200;BME280;3641;49.082;8.200;2023-02-23T08:22:18;100068.41;;;9.30;100.00
7200;BME280;3641;49.082;8.200;2023-02-23T08:24:45;100063.00;;;9.45;97.39
7200;BME280;3641;49.082;8.200;2023-02-23T08:27:11;100057.28;;;9.40;99.77
7200;BME280;3641;49.082;8.200;2023-02-23T08:29:38;100071.56;;;9.57;94.43
7200;BME280;3641;49.082;8.200;2023-02-23T08:32:05;100071.00;;;9.61;94.37
7200;BME280;3641;49.082;8.200;2023-02-23T08:34:36;100071.47;;;9.50;99.24
7200;BME280;3641;49.082;8.200;2023-02-23T08:37:02;100066.91;;;9.66;95.50
7200;BME280;3641;49.082;8.200;2023-02-23T08:39:29;100070.38;;;9.74;94.68
7200;BME280;3641;49.082;8.200;2023-02-23T08:41:55;100065.97;;;9.73;97.05
7200;BME280;3641;49.082;8.200;2023-02-23T08:44:22;100068.97;;;9.78;95.65
7200;BME280;3641;49.082;8.200;2023-02-23T08:46:49;100070.78;;;9.86;93.57
7200;BME280;3641;49.082;8.200;2023-02-23T08:49:16;100068.13;;;9.93;92.03
7200;BME280;3641;49.082;8.200;2023-02-23T08:51:44;100069.06;;;10.00;92.25
7200;BME280;3641;49.082;8.200;2023-02-23T08:54:11;100070.00;;;9.92;91.39
7200;BME280;3641;49.082;8.200;2023-02-23T08:56:39;100072.53;;;9.94;91.84
7200;BME280;3641;49.082;8.200;2023-02-23T08:59:05;100067.94;;;10.09;91.22
7200;BME280;3641;49.082;8.200;2023-02-23T09:01:32;100068.56;;;10.11;90.65
7200;BME280;3641;49.082;8.200;2023-02-23T09:03:59;100073.97;;;10.20;90.32
7200;BME280;3641;49.082;8.200;2023-02-23T09:06:26;100074.59;;;10.07;88.94
7200;BME280;3641;49.082;8.200;2023-02-23T09:08:54;100079.09;;;10.14;89.38
7200;BME280;3641;49.082;8.200;2023-02-23T09:11:21;100072.72;;;10.22;89.34
7200;BME280;3641;49.082;8.200;2023-02-23T09:13:48;100072.72;;;10.22;89.75
7200;BME280;3641;49.082;8.200;2023-02-23T09:16:15;100070.25;;;10.27;89.12
7200;BME280;3641;49.082;8.200;2023-02-23T09:18:42;100074.31;;;10.31;89.47
7200;BME280;3641;49.082;8.200;2023-02-23T09:21:17;100067.75;;;10.41;89.13
7200;BME280;3641;49.082;8.200;2023-02-23T09:23:45;100077.59;;;10.42;88.62
7200;BME280;3641;49.082;8.200;2023-02-23T09:26:15;100069.53;;;10.48;88.05
7200;BME280;3641;49.082;8.200;2023-02-23T09:28:43;100075.88;;;10.56;88.29
7200;BME280;3641;49.082;8.200;2023-02-23T09:31:13;100071.25;;;10.56;88.11
7200;BME280;3641;49.082;8.200;2023-02-23T09:33:40;100076.63;;;10.64;88.21
7200;BME280;3641;49.082;8.200;2023-02-23T09:36:08;100076.03;;;10.69;87.78
7200;BME280;3641;49.082;8.200;2023-02-23T09:38:37;100077.97;;;10.75;86.96
7200;BME280;3641;49.082;8.200;2023-02-23T09:41:05;100080.00;;;10.88;87.04
7200;BME280;3641;49.082;8.200;2023-02-23T09:43:41;100081.13;;;10.94;87.13
7200;BME280;3641;49.082;8.200;2023-02-23T09:46:23;100084.06;;;10.92;86.70
7200;BME280;3641;49.082;8.200;2023-02-23T09:48:55;100084.91;;;10.93;86.27
7200;BME280;3641;49.082;8.200;2023-02-23T09:51:22;100091.47;;;10.98;86.39
7200;BME280;3641;49.082;8.200;2023-02-23T09:53:52;100086.00;;;10.98;86.38
7200;BME280;3641;49.082;8.200;2023-02-23T09:56:23;100092.25;;;10.92;86.32
7200;BME280;3641;49.082;8.200;2023-02-23T09:58:57;100093.47;;;10.89;85.48
7200;BME280;3641;49.082;8.200;2023-02-23T10:01:53;100089.13;;;10.95;86.02
7200;BME280;3641;49.082;8.200;2023-02-23T10:04:24;100100.69;;;10.97;86.37
7200;BME280;3641;49.082;8.200;2023-02-23T10:06:57;100095.50;;;11.02;85.93
7200;BME280;3641;49.082;8.200;2023-02-23T10:09:31;100098.22;;;11.02;85.82
7200;BME280;3641;49.082;8.200;2023-02-23T10:12:08;100103.97;;;11.07;85.28
7200;BME280;3641;49.082;8.200;2023-02-23T10:14:54;100108.91;;;10.97;84.87
7200;BME280;3641;49.082;8.200;2023-02-23T10:17:28;100109.66;;;10.91;85.42
7200;BME280;3641;49.082;8.200;2023-02-23T10:20:03;100100.91;;;10.96;85.51
7200;BME280;3641;49.082;8.200;2023-02-23T10:22:36;100098.03;;;11.04;85.64
7200;BME280;3641;49.082;8.200;2023-02-23T10:25:08;100099.34;;;11.08;85.49
7200;BME280;3641;49.082;8.200;2023-02-23T10:27:39;100099.59;;;11.13;85.26
7200;BME280;3641;49.082;8.200;2023-02-23T10:30:16;100108.00;;;11.12;86.00
7200;BME280;3641;49.082;8.200;2023-02-23T10:32:48;100105.78;;;11.00;86.06
7200;BME280;3641;49.082;8.200;2023-02-23T10:35:18;100116.56;;;11.08;85.94
7200;BME280;3641;49.082;8.200;2023-02-23T10:37:45;100108.38;;;11.08;85.43
7200;BME280;3641;49.082;8.200;2023-02-23T10:40:14;100108.56;;;11.07;85.82
7200;BME280;3641;49.082;8.200;2023-02-23T10:42:41;100111.59;;;11.12;85.96
7200;BME280;3641;49.082;8.200;2023-02-23T10:45:14;100111.59;;;11.12;85.75
7200;BME280;3641;49.082;8.200;2023-02-23T10:47:44;100106.91;;;11.06;85.49
7200;BME280;3641;49.082;8.200;2023-02-23T10:50:12;100111.41;;;11.14;85.58
7200;BME280;3641;49.082;8.200;2023-02-23T10:52:41;100109.25;;;11.09;85.42
7200;BME280;3641;49.082;8.200;2023-02-23T10:55:20;100099.84;;;11.18;85.19
7200;BME280;3641;49.082;8.200;2023-02-23T10:57:49;100104.44;;;11.11;85.61
7200;BME280;3641;49.082;8.200;2023-02-23T11:00:28;100110.72;;;11.12;85.38
7200;BME280;3641;49.082;8.200;2023-02-23T11:02:58;100101.50;;;11.13;85.48
7200;BME280;3641;49.082;8.200;2023-02-23T11:05:35;100105.22;;;11.26;85.39
7200;BME280;3641;49.082;8.200;2023-02-23T11:08:23;100104.47;;;11.39;84.93
7200;BME280;3641;49.082;8.200;2023-02-23T11:11:04;100099.94;;;11.25;84.73
7200;BME280;3641;49.082;8.200;2023-02-23T11:13:37;100098.94;;;11.33;84.98
7200;BME280;3641;49.082;8.200;2023-02-23T11:16:08;100090.75;;;11.33;85.14
7200;BME280;3641;49.082;8.200;2023-02-23T11:18:36;100097.47;;;11.30;84.73
7200;BME280;3641;49.082;8.200;2023-02-23T11:21:08;100096.47;;;11.38;84.82
7200;BME280;3641;49.082;8.200;2023-02-23T11:23:36;100093.56;;;11.39;84.50
7200;BME280;3641;49.082;8.200;2023-02-23T11:26:18;100094.38;;;11.40;84.98
7200;BME280;3641;49.082;8.200;2023-02-23T11:28:50;100090.81;;;11.39;85.59
7200;BME280;3641;49.082;8.200;2023-02-23T11:31:20;100095.03;;;11.42;85.42
7200;BME280;3641;49.082;8.200;2023-02-23T11:33:48;100084.97;;;11.42;85.88
7200;BME280;3641;49.082;8.200;2023-02-23T11:36:18;100086.53;;;11.30;86.17
7200;BME280;3641;49.082;8.200;2023-02-23T11:39:00;100090.03;;;11.24;86.87
7200;BME280;3641;49.082;8.200;2023-02-23T11:41:27;100079.81;;;11.33;85.98
7200;BME280;3641;49.082;8.200;2023-02-23T11:43:56;100083.66;;;11.38;86.33
7200;BME280;3641;49.082;8.200;2023-02-23T11:46:26;100085.41;;;11.46;86.05
7200;BME280;3641;49.082;8.200;2023-02-23T11:48:56;100079.41;;;11.36;86.99
7200;BME280;3641;49.082;8.200;2023-02-23T11:51:25;100081.75;;;11.39;87.27
7200;BME280;3641;49.082;8.200;2023-02-23T11:53:54;100074.47;;;11.24;88.44
7200;BME280;3641;49.082;8.200;2023-02-23T11:56:22;100069.94;;;11.32;87.95
7200;BME280;3641;49.082;8.200;2023-02-23T11:58:52;100068.75;;;11.41;87.32
7200;BME280;3641;49.082;8.200;2023-02-23T12:01:20;100067.25;;;11.38;88.06
7200;BME280;3641;49.082;8.200;2023-02-23T12:03:52;100069.31;;;11.08;89.63
7200;BME280;3641;49.082;8.200;2023-02-23T12:06:28;100068.78;;;11.19;89.01
7200;BME280;3641;49.082;8.200;2023-02-23T12:08:59;100070.47;;;11.20;89.07
7200;BME280;3641;49.082;8.200;2023-02-23T12:11:34;100066.22;;;11.18;89.60
7200;BME280;3641;49.082;8.200;2023-02-23T12:14:06;100068.25;;;11.31;88.24
7200;BME280;3641;49.082;8.200;2023-02-23T12:16:45;100063.50;;;11.39;87.50
7200;BME280;3641;49.082;8.200;2023-02-23T12:19:22;100063.88;;;11.36;88.43
7200;BME280;3641;49.082;8.200;2023-02-23T12:21:57;100056.53;;;11.15;90.37
7200;BME280;3641;49.082;8.200;2023-02-23T12:24:30;100064.03;;;11.28;88.50
7200;BME280;3641;49.082;8.200;2023-02-23T12:27:03;100058.56;;;11.28;89.07
7200;BME280;3641;49.082;8.200;2023-02-23T12:29:42;100055.13;;;11.48;88.34
7200;BME280;3641;49.082;8.200;2023-02-23T12:32:16;100053.63;;;11.45;88.46
7200;BME280;3641;49.082;8.200;2023-02-23T12:34:48;100052.16;;;11.42;88.15
7200;BME280;3641;49.082;8.200;2023-02-23T12:37:26;100055.81;;;11.56;87.90
7200;BME280;3641;49.082;8.200;2023-02-23T12:39:57;100052.44;;;11.54;88.33
7200;BME280;3641;49.082;8.200;2023-02-23T12:42:36;100058.41;;;11.64;87.85
7200;BME280;3641;49.082;8.200;2023-02-23T12:45:14;100053.41;;;11.68;87.18
7200;BME280;3641;49.082;8.200;2023-02-23T12:47:47;100045.63;;;11.72;87.54
7200;BME280;3641;49.082;8.200;2023-02-23T12:50:22;100050.66;;;11.68;87.14
7200;BME280;3641;49.082;8.200;2023-02-23T12:52:53;100047.41;;;11.58;87.06
7200;BME280;3641;49.082;8.200;2023-02-23T12:55:31;100055.47;;;11.66;87.26
7200;BME280;3641;49.082;8.200;2023-02-23T12:58:06;100040.56;;;11.69;86.97
7200;BME280;3641;49.082;8.200;2023-02-23T13:00:44;100032.78;;;11.72;87.25
7200;BME280;3641;49.082;8.200;2023-02-23T13:03:32;100041.88;;;11.44;86.21
7200;BME280;3641;49.082;8.200;2023-02-23T13:06:08;100045.34;;;11.60;87.19
7200;BME280;3641;49.082;8.200;2023-02-23T13:08:52;100034.66;;;11.65;87.42
7200;BME280;3641;49.082;8.200;2023-02-23T13:11:29;100033.66;;;11.73;86.21
7200;BME280;3641;49.082;8.200;2023-02-23T13:14:04;100036.19;;;11.74;86.40
7200;BME280;3641;49.082;8.200;2023-02-23T13:16:37;100037.22;;;11.73;86.40
7200;BME280;3641;49.082;8.200;2023-02-23T13:19:12;100028.22;;;11.79;86.59
7200;BME280;3641;49.082;8.200;2023-02-23T13:21:51;100035.22;;;11.89;86.26
7200;BME280;3641;49.082;8.200;2023-02-23T13:24:21;100033.09;;;11.84;86.80
7200;BME280;3641;49.082;8.200;2023-02-23T13:26:52;100035.22;;;11.89;86.97
7200;BME280;3641;49.082;8.200;2023-02-23T13:29:30;100035.50;;;11.94;86.82
7200;BME280;3641;49.082;8.200;2023-02-23T13:32:00;100031.19;;;11.85;86.39
7200;BME280;3641;49.082;8.200;2023-02-23T13:34:29;100026.56;;;11.85;86.63
7200;BME280;3641;49.082;8.200;2023-02-23T13:36:58;100032.50;;;11.89;85.94
7200;BME280;3641;49.082;8.200;2023-02-23T13:39:48;100028.06;;;11.88;86.25
7200;BME280;3641;49.082;8.200;2023-02-23T13:42:26;100029.22;;;11.72;86.73
7200;BME280;3641;49.082;8.200;2023-02-23T13:45:01;100029.50;;;11.84;86.33
7200;BME280;3641;49.082;8.200;2023-02-23T13:47:37;100030.53;;;11.76;85.15